< < Back
Terminal Aerodrome Forecast


Current Version              Previous Versions:   1  2  3  4  5  6  7  8  9  

Terminal Aerodrome Forecast

921
FTUS44 KMOB 051744
TAFPNS
TAF
KPNS 051744Z 0518/0618 14008KT P6SM BKN007
     FM052000 24008KT P6SM VCTS BKN025CB OVC050
      TEMPO 0521/0524 21020KT 3SM TSRA BKN015 OVC025CB
     FM060000 15003KT P6SM OVC100
     FM060600 12002KT P6SM FEW025 BKN100 PROB30 0612/0618 5SM -TSRA
      BKN025CB=



Latest METAR

615
SAUS70 KWBC 050700 RRL
MTRPNS
METAR KPNS 050653Z AUTO 08003KT 10SM CLR 24/22 A3008 RMK AO2 SLP188
T02390222


USA.gov is the U.S. government's official web portal to all federal, state and local government web resources and services.